createdAt,value
2023-06-17T00:00:59.381Z,13.68
2023-06-17T00:03:16.376Z,13.65
2023-06-17T00:05:33.430Z,13.62
2023-06-17T00:07:50.319Z,13.59
2023-06-17T00:10:07.220Z,13.51
2023-06-17T00:12:24.182Z,13.48
2023-06-17T00:14:41.067Z,13.45
2023-06-17T00:16:57.960Z,13.40
2023-06-17T00:19:14.878Z,13.36
2023-06-17T00:21:31.766Z,13.33
2023-06-17T00:23:48.712Z,13.33
2023-06-17T00:26:05.641Z,13.29
2023-06-17T00:28:22.575Z,13.25
2023-06-17T00:30:39.490Z,13.20
2023-06-17T00:32:56.428Z,13.14
2023-06-17T00:35:13.796Z,13.13
2023-06-17T00:37:30.748Z,13.06
2023-06-17T00:39:47.655Z,13.04
2023-06-17T00:42:04.555Z,13.05
2023-06-17T00:44:21.448Z,13.04
2023-06-17T00:46:38.422Z,12.97
2023-06-17T00:48:55.383Z,12.96
2023-06-17T00:51:12.318Z,12.91
2023-06-17T00:53:29.220Z,12.90
2023-06-17T00:55:46.196Z,12.88
2023-06-17T00:58:03.094Z,12.86
2023-06-17T01:00:20.231Z,12.81
2023-06-17T01:02:37.967Z,12.79
2023-06-17T01:04:54.958Z,12.69
2023-06-17T01:07:11.921Z,12.66
2023-06-17T01:09:28.809Z,12.68
2023-06-17T01:11:45.701Z,12.66
2023-06-17T01:14:03.104Z,12.67
2023-06-17T01:16:20.034Z,12.64
2023-06-17T01:18:36.943Z,12.58
2023-06-17T01:20:53.835Z,12.52
2023-06-17T01:23:10.816Z,12.46
2023-06-17T01:25:27.751Z,12.41
2023-06-17T01:27:44.639Z,12.39
2023-06-17T01:30:01.516Z,12.34
2023-06-17T01:32:18.476Z,12.29
2023-06-17T01:34:35.405Z,12.29
2023-06-17T01:36:52.258Z,12.24
2023-06-17T01:39:09.187Z,12.24
2023-06-17T01:41:26.608Z,12.21
2023-06-17T01:43:43.543Z,12.15
2023-06-17T01:46:00.836Z,12.12
2023-06-17T01:48:17.787Z,12.10
2023-06-17T01:50:34.706Z,12.07
2023-06-17T01:52:51.614Z,12.03
2023-06-17T01:55:09.803Z,11.98
2023-06-17T01:57:26.722Z,11.92
2023-06-17T01:59:43.675Z,11.88
2023-06-17T02:02:00.569Z,11.87
2023-06-17T02:04:17.503Z,11.86
2023-06-17T02:06:34.942Z,11.87
2023-06-17T02:08:51.927Z,11.89
2023-06-17T02:11:08.819Z,11.88
2023-06-17T02:13:25.718Z,11.91
2023-06-17T02:15:42.607Z,11.90
2023-06-17T02:18:00.100Z,11.86
2023-06-17T02:20:17.089Z,11.81
2023-06-17T02:22:33.995Z,11.80
2023-06-17T02:24:50.894Z,11.76
2023-06-17T02:27:07.829Z,11.72
2023-06-17T02:29:25.199Z,11.70
2023-06-17T02:31:42.717Z,11.65
2023-06-17T02:34:00.203Z,11.65
2023-06-17T02:36:17.660Z,11.61
2023-06-17T02:38:34.617Z,11.59
2023-06-17T02:40:51.525Z,11.57
2023-06-17T02:43:08.439Z,11.52
2023-06-17T02:45:25.831Z,11.51
2023-06-17T02:47:43.169Z,11.49
2023-06-17T02:50:00.549Z,11.46
2023-06-17T02:52:17.860Z,11.43
2023-06-17T02:54:34.781Z,11.39
2023-06-17T02:56:51.672Z,11.36
2023-06-17T02:59:08.625Z,11.32
2023-06-17T03:01:25.647Z,11.28
2023-06-17T03:03:43.293Z,11.23
2023-06-17T03:06:00.213Z,11.19
2023-06-17T03:08:17.096Z,11.14
2023-06-17T03:10:33.986Z,11.11
2023-06-17T03:12:50.954Z,11.05
2023-06-17T03:15:08.360Z,11.07
2023-06-17T03:17:25.319Z,11.05
2023-06-17T03:19:42.229Z,11.04
2023-06-17T03:21:59.184Z,11.01
2023-06-17T03:24:16.133Z,10.97
2023-06-17T03:26:33.066Z,10.97
2023-06-17T03:28:49.975Z,10.98
2023-06-17T03:31:06.951Z,11.00
2023-06-17T03:33:23.877Z,11.03
2023-06-17T03:35:40.776Z,11.01
2023-06-17T03:37:57.633Z,11.00
2023-06-17T03:40:14.964Z,10.98
2023-06-17T03:42:31.903Z,10.93
2023-06-17T03:44:49.226Z,10.92
2023-06-17T03:47:06.124Z,10.87
2023-06-17T03:49:23.555Z,10.82
2023-06-17T03:51:40.905Z,10.82
2023-06-17T03:53:57.773Z,10.85
2023-06-17T03:56:14.731Z,10.83
2023-06-17T03:58:31.700Z,10.83
2023-06-17T04:00:48.598Z,10.84
2023-06-17T04:03:05.624Z,10.82
2023-06-17T04:05:23.589Z,10.81
2023-06-17T04:07:40.548Z,10.79
2023-06-17T04:10:06.291Z,10.76
2023-06-17T04:12:24.690Z,10.84
2023-06-17T04:14:41.636Z,10.87
2023-06-17T04:16:58.576Z,10.82
2023-06-17T04:19:15.555Z,10.85
2023-06-17T04:21:32.506Z,10.86
2023-06-17T04:23:49.481Z,10.88
2023-06-17T04:26:06.479Z,10.92
2023-06-17T04:28:23.387Z,10.95
2023-06-17T04:30:40.335Z,10.99
2023-06-17T04:32:57.798Z,11.04
2023-06-17T04:35:15.315Z,11.05
2023-06-17T04:37:32.189Z,11.06
2023-06-17T04:39:49.545Z,11.10
2023-06-17T04:42:06.434Z,11.13
2023-06-17T04:44:23.384Z,11.18
2023-06-17T04:46:40.302Z,11.24
2023-06-17T04:48:58.000Z,11.28
2023-06-17T04:51:14.924Z,11.31
2023-06-17T04:53:31.864Z,11.39
2023-06-17T04:55:48.774Z,11.43
2023-06-17T04:58:05.672Z,11.50
2023-06-17T05:00:22.831Z,11.63
2023-06-17T05:02:39.817Z,11.74
2023-06-17T05:04:56.740Z,11.84
2023-06-17T05:07:14.168Z,11.91
2023-06-17T05:09:31.084Z,12.08
2023-06-17T05:11:48.023Z,12.29
2023-06-17T05:14:04.884Z,12.46
2023-06-17T05:16:21.774Z,12.60
2023-06-17T05:18:38.732Z,12.70
2023-06-17T05:20:56.125Z,12.78
2023-06-17T05:23:13.016Z,12.89
2023-06-17T05:25:30.413Z,12.96
2023-06-17T05:27:47.326Z,13.09
2023-06-17T05:30:04.677Z,13.12
2023-06-17T05:32:21.649Z,13.26
2023-06-17T05:34:39.031Z,13.35
2023-06-17T05:36:56.421Z,13.49
2023-06-17T05:39:13.889Z,13.64
2023-06-17T05:41:30.793Z,13.77
2023-06-17T05:43:48.167Z,13.83
2023-06-17T05:46:05.094Z,13.99
2023-06-17T05:48:24.686Z,14.10
2023-06-17T05:50:43.202Z,14.22
2023-06-17T05:53:00.136Z,14.32
2023-06-17T05:55:17.554Z,14.45
2023-06-17T05:57:34.492Z,14.55
2023-06-17T05:59:51.387Z,14.64
2023-06-17T06:02:08.352Z,14.79
2023-06-17T06:04:25.282Z,14.92
2023-06-17T06:06:42.231Z,15.08
2023-06-17T06:08:59.151Z,15.20
2023-06-17T06:11:16.058Z,15.32
2023-06-17T06:13:32.949Z,15.43
2023-06-17T06:15:50.432Z,15.53
2023-06-17T06:18:08.208Z,15.62
2023-06-17T06:20:25.192Z,15.74
2023-06-17T06:22:42.098Z,15.87
2023-06-17T06:24:59.047Z,15.99
2023-06-17T06:27:15.941Z,16.09
2023-06-17T06:29:33.290Z,16.18
2023-06-17T06:31:50.167Z,16.28
2023-06-17T06:34:07.107Z,16.42
2023-06-17T06:36:24.078Z,16.55
2023-06-17T06:38:40.985Z,16.71
2023-06-17T06:40:57.857Z,16.80
2023-06-17T06:43:14.796Z,16.88
2023-06-17T06:45:31.747Z,17.00
2023-06-17T06:47:48.754Z,17.12
2023-06-17T06:50:07.249Z,17.21
2023-06-17T06:52:24.218Z,17.34
2023-06-17T06:54:41.142Z,17.47
2023-06-17T06:56:58.059Z,17.58
2023-06-17T06:59:14.953Z,17.68
2023-06-17T07:01:31.950Z,17.79
2023-06-17T07:03:48.856Z,17.89
2023-06-17T07:06:05.785Z,18.04
2023-06-17T07:08:23.385Z,18.20
2023-06-17T07:10:41.904Z,18.37
2023-06-17T07:12:59.486Z,18.48
2023-06-17T07:15:16.422Z,18.65
2023-06-17T07:17:33.376Z,18.77
2023-06-17T07:19:50.343Z,18.88
2023-06-17T07:22:07.843Z,19.06
2023-06-17T07:24:24.861Z,19.22
2023-06-17T07:26:41.906Z,19.40
2023-06-17T07:28:58.882Z,19.51
2023-06-17T07:31:15.811Z,19.66
2023-06-17T07:33:32.726Z,19.79
2023-06-17T07:35:49.644Z,19.98
2023-06-17T07:38:06.553Z,20.17
2023-06-17T07:40:23.645Z,20.36
2023-06-17T07:42:40.797Z,20.59
2023-06-17T07:44:57.735Z,20.74
2023-06-17T07:47:14.667Z,20.91
2023-06-17T07:49:31.594Z,21.12
2023-06-17T07:51:48.478Z,21.30
2023-06-17T07:54:05.404Z,21.50
2023-06-17T07:56:22.372Z,21.58
2023-06-17T07:58:39.282Z,21.75
2023-06-17T08:00:56.263Z,21.95
2023-06-17T08:03:13.324Z,22.07
2023-06-17T08:05:30.338Z,22.19
2023-06-17T08:07:47.231Z,22.35
2023-06-17T08:12:21.158Z,22.72
2023-06-17T08:14:38.090Z,22.95
2023-06-17T08:16:55.535Z,23.10
2023-06-17T08:19:12.450Z,23.32
2023-06-17T08:21:29.320Z,23.46
2023-06-17T08:23:46.258Z,23.61
2023-06-17T08:26:03.157Z,23.86
2023-06-17T08:28:20.520Z,24.18
2023-06-17T08:30:37.407Z,24.29
2023-06-17T08:32:54.836Z,24.47
2023-06-17T08:35:11.799Z,24.64
2023-06-17T08:37:28.732Z,24.76
2023-06-17T08:39:45.609Z,24.85
2023-06-17T08:42:02.535Z,24.87
2023-06-17T08:44:19.454Z,25.05
2023-06-17T08:46:36.346Z,25.15
2023-06-17T08:48:53.255Z,25.10
2023-06-17T08:51:10.732Z,25.30
2023-06-17T08:53:27.625Z,25.40
2023-06-17T08:55:44.548Z,25.51
2023-06-17T08:58:01.479Z,25.78
2023-06-17T09:00:18.676Z,25.85
2023-06-17T09:02:35.869Z,25.66
2023-06-17T09:04:52.927Z,25.72
2023-06-17T09:07:09.893Z,25.87
2023-06-17T09:09:26.837Z,26.05
2023-06-17T09:11:43.790Z,26.14
2023-06-17T09:14:00.795Z,26.22
2023-06-17T09:16:17.800Z,26.37
2023-06-17T09:18:34.782Z,26.47
2023-06-17T09:20:51.676Z,26.47
2023-06-17T09:23:08.585Z,26.58
2023-06-17T09:25:25.496Z,26.75
2023-06-17T09:27:42.458Z,26.78
2023-06-17T09:29:59.384Z,26.84
2023-06-17T09:32:16.295Z,26.95
2023-06-17T09:34:33.259Z,27.09
2023-06-17T09:36:50.163Z,27.18
2023-06-17T09:39:07.026Z,27.23
2023-06-17T09:41:23.932Z,27.31
2023-06-17T09:43:40.837Z,27.11
2023-06-17T09:45:57.782Z,27.13
2023-06-17T09:48:14.732Z,27.29
2023-06-17T09:50:31.677Z,27.38
2023-06-17T09:52:48.637Z,27.13
2023-06-17T09:55:05.553Z,27.17
2023-06-17T09:57:22.431Z,27.39
2023-06-17T09:59:39.373Z,27.30
2023-06-17T10:01:56.704Z,27.21
2023-06-17T10:04:13.719Z,27.40
2023-06-17T10:06:30.628Z,27.23
2023-06-17T10:08:47.516Z,27.47
2023-06-17T10:11:04.400Z,27.69
2023-06-17T10:13:21.300Z,27.83
2023-06-17T10:15:38.204Z,27.91
2023-06-17T10:17:55.168Z,27.86
2023-06-17T10:20:12.136Z,28.19
2023-06-17T10:22:29.077Z,27.96
2023-06-17T10:24:46.005Z,28.06
2023-06-17T10:29:20.784Z,28.20
2023-06-17T10:31:40.122Z,28.11
2023-06-17T10:34:07.476Z,28.39
2023-06-17T10:36:24.485Z,28.52
2023-06-17T10:38:41.444Z,28.74
2023-06-17T10:40:58.392Z,28.79
2023-06-17T10:43:15.290Z,28.81
2023-06-17T10:45:32.338Z,28.83
2023-06-17T10:47:49.363Z,28.93
2023-06-17T10:50:06.346Z,28.88
2023-06-17T10:52:23.248Z,28.91
2023-06-17T10:54:40.186Z,28.95
2023-06-17T10:56:57.121Z,28.94
2023-06-17T10:59:14.106Z,28.99
2023-06-17T11:01:31.025Z,28.79
2023-06-17T11:03:47.995Z,28.93
2023-06-17T11:06:04.991Z,29.10
2023-06-17T11:08:21.926Z,29.04
2023-06-17T11:10:38.909Z,28.99
2023-06-17T11:12:55.817Z,29.12
2023-06-17T11:15:12.732Z,29.35
2023-06-17T11:17:29.693Z,29.37
2023-06-17T11:19:46.631Z,29.47
2023-06-17T11:22:03.573Z,29.53
2023-06-17T11:24:20.506Z,29.57
2023-06-17T11:26:37.542Z,29.61
2023-06-17T11:28:54.448Z,29.56
2023-06-17T11:31:11.367Z,29.62
2023-06-17T11:33:28.416Z,29.71
2023-06-17T11:35:45.374Z,29.67
2023-06-17T11:38:02.271Z,29.63
2023-06-17T11:40:19.574Z,29.76
2023-06-17T11:42:36.795Z,29.88
2023-06-17T11:44:53.732Z,29.79
2023-06-17T11:47:10.886Z,29.88
2023-06-17T11:49:27.882Z,29.91
2023-06-17T11:51:44.801Z,29.70
2023-06-17T11:54:01.776Z,29.74
2023-06-17T11:56:18.681Z,29.56
2023-06-17T11:58:35.623Z,29.61
2023-06-17T12:00:52.562Z,29.39
2023-06-17T12:03:09.560Z,29.77
2023-06-17T12:05:26.489Z,29.93
2023-06-17T12:07:43.426Z,29.84
2023-06-17T12:10:00.397Z,29.75
2023-06-17T12:12:17.330Z,29.81
2023-06-17T12:14:34.203Z,29.96
2023-06-17T12:16:51.137Z,30.01
2023-06-17T12:19:08.037Z,30.35
2023-06-17T12:21:24.962Z,29.93
2023-06-17T12:23:42.047Z,30.11
2023-06-17T12:25:59.396Z,30.32
2023-06-17T12:28:16.258Z,29.91
2023-06-17T12:30:33.226Z,30.09
2023-06-17T12:32:50.188Z,30.16
2023-06-17T12:35:09.148Z,29.82
2023-06-17T12:37:26.185Z,29.70
2023-06-17T12:39:43.122Z,29.95
2023-06-17T12:42:00.048Z,30.14
2023-06-17T12:44:16.942Z,30.29
2023-06-17T12:46:33.868Z,30.37
2023-06-17T12:48:51.312Z,30.53
2023-06-17T12:51:10.201Z,30.54
2023-06-17T12:53:27.080Z,30.48
2023-06-17T12:55:43.968Z,30.54
2023-06-17T12:58:00.899Z,30.65
2023-06-17T13:00:17.854Z,30.82
2023-06-17T13:02:35.297Z,31.00
2023-06-17T13:04:52.272Z,30.94
2023-06-17T13:07:09.216Z,30.92
2023-06-17T13:09:26.130Z,30.66
2023-06-17T13:11:43.024Z,30.56
2023-06-17T13:13:59.953Z,30.43
2023-06-17T13:16:16.913Z,30.32
2023-06-17T13:18:33.819Z,30.61
2023-06-17T13:20:50.712Z,30.73
2023-06-17T13:23:07.599Z,30.90
2023-06-17T13:25:24.523Z,30.83
2023-06-17T13:27:41.554Z,30.95
2023-06-17T13:29:58.534Z,30.99
2023-06-17T13:32:17.694Z,31.01
2023-06-17T13:34:36.286Z,31.16
2023-06-17T13:36:53.206Z,31.12
2023-06-17T13:39:10.184Z,31.04
2023-06-17T13:41:27.124Z,31.13
2023-06-17T13:43:44.050Z,31.21
2023-06-17T13:46:00.999Z,31.15
2023-06-17T13:48:17.931Z,31.17
2023-06-17T13:50:37.164Z,31.20
2023-06-17T13:52:54.421Z,31.07
2023-06-17T13:55:11.338Z,30.80
2023-06-17T13:57:28.757Z,31.12
2023-06-17T13:59:45.656Z,31.05
2023-06-17T14:02:02.682Z,31.32
2023-06-17T14:04:20.175Z,31.25
2023-06-17T14:06:37.166Z,31.03
2023-06-17T14:08:54.057Z,30.82
2023-06-17T14:11:11.055Z,30.92
2023-06-17T14:13:27.910Z,30.77
2023-06-17T14:15:44.812Z,30.80
2023-06-17T14:18:01.802Z,30.88
2023-06-17T14:20:18.805Z,30.71
2023-06-17T14:22:36.188Z,30.84
2023-06-17T14:24:53.118Z,31.07
2023-06-17T14:27:10.053Z,30.90
2023-06-17T14:29:26.998Z,30.87
2023-06-17T14:31:44.410Z,30.69
2023-06-17T14:34:01.305Z,30.61
2023-06-17T14:36:18.266Z,30.92
2023-06-17T14:38:35.206Z,31.00
2023-06-17T14:40:52.098Z,31.10
2023-06-17T14:43:09.002Z,30.98
2023-06-17T14:45:25.935Z,30.92
2023-06-17T14:47:42.966Z,30.74
2023-06-17T14:49:59.989Z,30.53
2023-06-17T14:52:16.880Z,30.55
2023-06-17T14:54:33.829Z,30.56
2023-06-17T14:56:51.284Z,30.39
2023-06-17T14:59:08.686Z,30.58
2023-06-17T15:01:25.634Z,30.59
2023-06-17T15:03:42.676Z,30.66
2023-06-17T15:05:59.659Z,30.59
2023-06-17T15:08:16.605Z,30.47
2023-06-17T15:10:33.504Z,30.37
2023-06-17T15:12:50.399Z,30.49
2023-06-17T15:15:07.395Z,30.23
2023-06-17T15:17:24.329Z,30.24
2023-06-17T15:19:41.252Z,30.00
2023-06-17T15:21:58.190Z,29.78
2023-06-17T15:24:15.666Z,30.01
2023-06-17T15:26:32.654Z,29.88
2023-06-17T15:28:49.572Z,29.86
2023-06-17T15:31:06.488Z,29.80
2023-06-17T15:33:23.414Z,29.77
2023-06-17T15:35:40.357Z,29.52
2023-06-17T15:37:57.251Z,29.60
2023-06-17T15:40:14.222Z,29.54
2023-06-17T15:42:31.571Z,29.44
2023-06-17T15:44:48.520Z,29.29
2023-06-17T15:47:05.458Z,29.16
2023-06-17T15:49:22.772Z,28.99
2023-06-17T15:51:39.713Z,28.96
2023-06-17T15:53:56.662Z,28.98
2023-06-17T15:56:13.559Z,29.01
2023-06-17T15:58:30.442Z,28.85
2023-06-17T16:00:47.402Z,28.85
2023-06-17T16:03:04.331Z,28.76
2023-06-17T16:05:21.270Z,28.80
2023-06-17T16:07:38.189Z,28.78
2023-06-17T16:09:55.160Z,28.67
2023-06-17T16:12:12.113Z,28.69
2023-06-17T16:14:29.029Z,28.63
2023-06-17T16:16:45.925Z,28.63
2023-06-17T16:19:02.886Z,28.64
2023-06-17T16:21:19.806Z,28.60
2023-06-17T16:23:36.740Z,28.57
2023-06-17T16:25:56.024Z,28.61
2023-06-17T16:28:13.200Z,28.62
2023-06-17T16:30:30.098Z,28.61
2023-06-17T16:32:47.440Z,28.59
2023-06-17T16:35:04.404Z,28.56
2023-06-17T16:37:21.320Z,28.50
2023-06-17T16:39:38.263Z,28.33
2023-06-17T16:41:55.199Z,28.31
2023-06-17T16:44:12.079Z,28.34
2023-06-17T16:46:28.995Z,28.23
2023-06-17T16:48:45.882Z,28.16
2023-06-17T16:51:02.796Z,28.10
2023-06-17T16:53:20.101Z,28.09
2023-06-17T16:55:37.078Z,28.09
2023-06-17T16:57:53.956Z,28.16
2023-06-17T17:00:11.316Z,28.03
2023-06-17T17:02:28.365Z,28.03
2023-06-17T17:04:45.392Z,27.99
2023-06-17T17:07:02.325Z,27.96
2023-06-17T17:09:19.305Z,27.91
2023-06-17T17:11:36.315Z,27.81
2023-06-17T17:13:53.293Z,27.77
2023-06-17T17:16:10.247Z,27.75
2023-06-17T17:18:27.176Z,27.68
2023-06-17T17:20:44.096Z,27.54
2023-06-17T17:23:01.534Z,27.43
2023-06-17T17:25:18.454Z,27.27
2023-06-17T17:27:35.390Z,27.20
2023-06-17T17:29:52.294Z,27.14
2023-06-17T17:32:09.464Z,27.05
2023-06-17T17:34:26.396Z,26.93
2023-06-17T17:36:43.268Z,26.82
2023-06-17T17:39:00.339Z,26.76
2023-06-17T17:41:17.435Z,26.62
2023-06-17T17:43:34.333Z,26.46
2023-06-17T17:45:51.353Z,26.36
2023-06-17T17:48:08.432Z,26.29
2023-06-17T17:50:25.381Z,26.19
2023-06-17T17:52:42.281Z,26.07
2023-06-17T17:55:02.756Z,25.98
2023-06-17T17:57:20.492Z,25.84
2023-06-17T17:59:37.404Z,25.75
2023-06-17T18:01:54.763Z,25.66
2023-06-17T18:04:11.658Z,25.55
2023-06-17T18:06:28.565Z,25.44
2023-06-17T18:08:45.543Z,25.34
2023-06-17T18:11:02.490Z,25.27
2023-06-17T18:13:19.398Z,25.19
2023-06-17T18:15:36.381Z,25.12
2023-06-17T18:17:53.415Z,24.98
2023-06-17T18:20:10.481Z,24.84
2023-06-17T18:22:27.464Z,24.72
2023-06-17T18:24:44.781Z,24.61
2023-06-17T18:27:01.707Z,24.51
2023-06-17T18:29:18.602Z,24.43
2023-06-17T18:31:35.513Z,24.38
2023-06-17T18:33:52.421Z,24.31
2023-06-17T18:36:09.601Z,24.23
2023-06-17T18:38:26.525Z,24.14
2023-06-17T18:40:43.455Z,24.02
2023-06-17T18:43:00.395Z,23.93
2023-06-17T18:45:17.322Z,23.89
2023-06-17T18:47:34.257Z,23.73
2023-06-17T18:49:51.181Z,23.57
2023-06-17T18:52:08.092Z,23.44
2023-06-17T18:54:25.040Z,23.31
2023-06-17T18:56:41.960Z,23.22
2023-06-17T18:58:58.862Z,23.12
2023-06-17T19:01:15.854Z,22.99
2023-06-17T19:03:32.854Z,22.90
2023-06-17T19:05:49.784Z,22.85
2023-06-17T19:08:06.736Z,22.78
2023-06-17T19:10:24.157Z,22.63
2023-06-17T19:12:41.319Z,22.50
2023-06-17T19:14:58.279Z,22.36
2023-06-17T19:17:15.205Z,22.26
2023-06-17T19:19:32.141Z,22.15
2023-06-17T19:21:49.094Z,22.04
2023-06-17T19:24:06.032Z,21.94
2023-06-17T19:26:22.959Z,21.84
2023-06-17T19:28:39.903Z,21.71
2023-06-17T19:30:56.864Z,21.71
2023-06-17T19:33:14.031Z,21.68
2023-06-17T19:35:30.957Z,21.60
2023-06-17T19:37:48.908Z,21.53
2023-06-17T19:40:05.921Z,21.44
2023-06-17T19:42:23.331Z,21.29
2023-06-17T19:44:40.286Z,21.19
2023-06-17T19:46:58.297Z,21.07
2023-06-17T19:49:15.342Z,21.01
2023-06-17T19:51:32.272Z,20.97
2023-06-17T19:53:49.225Z,20.87
2023-06-17T19:56:06.186Z,20.76
2023-06-17T19:58:31.694Z,20.68
2023-06-17T20:00:48.682Z,20.56
2023-06-17T20:03:08.751Z,20.43
2023-06-17T20:05:25.733Z,20.31
2023-06-17T20:07:42.741Z,20.24
2023-06-17T20:09:59.693Z,20.16
2023-06-17T20:12:16.646Z,20.08
2023-06-17T20:14:33.805Z,19.99
2023-06-17T20:16:50.772Z,19.92
2023-06-17T20:19:08.701Z,19.87
2023-06-17T20:21:26.908Z,19.78
2023-06-17T20:23:43.850Z,19.66
2023-06-17T20:26:00.873Z,19.55
2023-06-17T20:28:18.199Z,19.45
2023-06-17T20:30:35.128Z,19.38
2023-06-17T20:32:52.078Z,19.31
2023-06-17T20:35:09.104Z,19.25
2023-06-17T20:37:26.265Z,19.15
2023-06-17T20:39:43.247Z,19.02
2023-06-17T20:42:00.252Z,18.94
2023-06-17T20:44:17.352Z,18.86
2023-06-17T20:46:34.554Z,18.80
2023-06-17T20:48:52.091Z,18.74
2023-06-17T20:51:09.041Z,18.66
2023-06-17T20:53:25.988Z,18.55
2023-06-17T20:55:42.915Z,18.48
2023-06-17T20:58:00.854Z,18.44
2023-06-17T21:00:17.799Z,18.36
2023-06-17T21:02:35.906Z,18.27
2023-06-17T21:04:52.910Z,18.20
2023-06-17T21:07:10.304Z,18.15
2023-06-17T21:09:29.727Z,18.13
2023-06-17T21:11:46.659Z,18.09
2023-06-17T21:14:03.598Z,18.05
2023-06-17T21:16:20.841Z,17.98
2023-06-17T21:18:37.807Z,17.92
2023-06-17T21:20:55.285Z,17.84
2023-06-17T21:23:12.243Z,17.80
2023-06-17T21:25:29.278Z,17.82
2023-06-17T21:27:46.211Z,17.85
2023-06-17T21:30:05.223Z,17.81
2023-06-17T21:32:22.600Z,17.76
2023-06-17T21:34:39.572Z,17.66
2023-06-17T21:36:58.517Z,17.56
2023-06-17T21:39:22.747Z,17.49
2023-06-17T21:41:39.638Z,17.39
2023-06-17T21:43:56.483Z,17.31
2023-06-17T21:46:14.780Z,17.21
2023-06-17T21:48:31.853Z,17.14
2023-06-17T21:50:49.843Z,17.04
2023-06-17T21:53:06.754Z,16.99
2023-06-17T21:55:23.630Z,16.94
2023-06-17T21:57:40.620Z,16.88
2023-06-17T21:59:57.623Z,16.86
2023-06-17T22:02:14.743Z,16.82
2023-06-17T22:04:31.789Z,16.77
2023-06-17T22:06:48.761Z,16.72
2023-06-17T22:09:06.132Z,16.67
2023-06-17T22:11:23.258Z,16.64
2023-06-17T22:13:40.203Z,16.60
2023-06-17T22:15:57.484Z,16.55
2023-06-17T22:18:14.455Z,16.53
2023-06-17T22:20:32.328Z,16.47
2023-06-17T22:22:49.518Z,16.39
2023-06-17T22:25:07.757Z,16.35
2023-06-17T22:27:25.921Z,16.32
2023-06-17T22:29:42.885Z,16.27
2023-06-17T22:32:00.316Z,16.25
2023-06-17T22:34:20.151Z,16.21
2023-06-17T22:36:37.082Z,16.14
2023-06-17T22:38:54.244Z,16.06
2023-06-17T22:41:13.244Z,16.05
2023-06-17T22:43:34.375Z,16.04
2023-06-17T22:45:51.336Z,16.02
2023-06-17T22:48:08.892Z,15.92
2023-06-17T22:50:28.118Z,15.87
2023-06-17T22:52:52.193Z,15.79
2023-06-17T22:55:09.200Z,15.77
2023-06-17T22:57:26.128Z,15.72
2023-06-17T22:59:43.095Z,15.69
2023-06-17T23:02:02.157Z,15.59
2023-06-17T23:04:19.738Z,15.58
2023-06-17T23:06:38.922Z,15.54
2023-06-17T23:08:56.372Z,15.48
2023-06-17T23:11:15.384Z,15.43
2023-06-17T23:13:33.350Z,15.38
2023-06-17T23:15:50.872Z,15.33
2023-06-17T23:18:09.883Z,15.31
2023-06-17T23:20:27.139Z,15.29
2023-06-17T23:22:46.310Z,15.22
2023-06-17T23:25:08.239Z,15.20
2023-06-17T23:27:25.517Z,15.16
2023-06-17T23:29:42.478Z,15.14
2023-06-17T23:31:59.430Z,15.10
2023-06-17T23:34:16.392Z,15.07
2023-06-17T23:36:35.413Z,15.03
2023-06-17T23:38:52.665Z,14.99
2023-06-17T23:41:09.696Z,14.94
2023-06-17T23:43:26.630Z,14.91
2023-06-17T23:45:43.581Z,14.87
2023-06-17T23:48:00.710Z,14.87
2023-06-17T23:50:17.715Z,14.85
2023-06-17T23:52:34.604Z,14.83
2023-06-17T23:54:52.736Z,14.78
2023-06-17T23:57:10.536Z,14.71
2023-06-17T23:59:27.461Z,14.65
